createdAt,value
2023-01-17T00:02:23.090Z,3.54
2023-01-17T00:05:09.572Z,3.53
2023-01-17T00:07:55.956Z,3.51
2023-01-17T00:10:26.152Z,3.52
2023-01-17T00:12:59.657Z,3.51
2023-01-17T00:15:29.349Z,3.51
2023-01-17T00:17:57.435Z,3.50
2023-01-17T00:20:49.681Z,3.50
2023-01-17T00:23:42.797Z,3.51
2023-01-17T00:26:14.682Z,3.52
2023-01-17T00:28:43.823Z,3.52
2023-01-17T00:31:13.940Z,3.53
2023-01-17T00:33:41.820Z,3.53
2023-01-17T00:36:10.922Z,3.54
2023-01-17T00:38:41.037Z,3.55
2023-01-17T00:41:11.832Z,3.55
2023-01-17T00:43:58.643Z,3.54
2023-01-17T00:46:45.243Z,3.57
2023-01-17T00:49:31.370Z,3.62
2023-01-17T00:52:17.912Z,3.60
2023-01-17T00:55:04.196Z,3.60
2023-01-17T00:57:50.547Z,3.60
2023-01-17T01:00:37.437Z,3.61
2023-01-17T01:03:29.025Z,3.63
2023-01-17T01:06:15.760Z,3.65
2023-01-17T01:09:02.253Z,3.69
2023-01-17T01:11:48.779Z,3.69
2023-01-17T01:14:35.333Z,3.71
2023-01-17T01:17:21.913Z,3.73
2023-01-17T01:20:08.024Z,3.74
2023-01-17T01:22:54.239Z,3.76
2023-01-17T01:25:40.852Z,3.78
2023-01-17T01:28:32.243Z,3.80
2023-01-17T01:31:20.343Z,3.82
2023-01-17T01:33:48.325Z,3.82
2023-01-17T01:36:15.997Z,3.84
2023-01-17T01:38:43.752Z,3.86
2023-01-17T01:41:11.439Z,3.86
2023-01-17T01:43:45.171Z,3.87
2023-01-17T01:46:38.045Z,3.89
2023-01-17T01:49:18.936Z,3.90
2023-01-17T01:51:52.536Z,3.89
2023-01-17T01:54:23.901Z,3.89
2023-01-17T01:56:53.438Z,3.89
2023-01-17T01:59:22.679Z,3.89
2023-01-17T02:01:53.036Z,3.89
2023-01-17T02:04:22.646Z,3.89
2023-01-17T02:06:59.078Z,3.90
2023-01-17T02:09:27.675Z,3.89
2023-01-17T02:11:55.616Z,3.89
2023-01-17T02:14:23.304Z,3.90
2023-01-17T02:17:03.922Z,3.90
2023-01-17T02:19:50.344Z,3.91
2023-01-17T02:22:26.924Z,3.93
2023-01-17T02:25:16.436Z,3.97
2023-01-17T02:28:06.669Z,3.98
2023-01-17T02:30:39.434Z,3.99
2023-01-17T02:33:19.207Z,4.01
2023-01-17T02:36:04.224Z,4.03
2023-01-17T02:38:44.177Z,4.04
2023-01-17T02:41:36.921Z,4.04
2023-01-17T02:44:05.034Z,4.05
2023-01-17T02:46:32.691Z,4.07
2023-01-17T02:49:00.679Z,4.08
2023-01-17T02:51:38.916Z,4.09
2023-01-17T02:54:23.952Z,4.12
2023-01-17T02:57:10.022Z,4.11
2023-01-17T03:00:01.323Z,4.09
2023-01-17T03:02:38.005Z,4.10
2023-01-17T03:05:22.884Z,4.11
2023-01-17T03:07:52.145Z,4.13
2023-01-17T03:10:21.007Z,4.13
2023-01-17T03:12:48.681Z,4.06
2023-01-17T03:15:20.330Z,4.01
2023-01-17T03:17:50.767Z,4.02
2023-01-17T03:20:18.731Z,3.99
2023-01-17T03:22:47.134Z,4.05
2023-01-17T03:25:14.829Z,4.15
2023-01-17T03:27:42.512Z,4.14
2023-01-17T03:30:10.814Z,4.12
2023-01-17T03:32:38.568Z,4.11
2023-01-17T03:35:06.785Z,4.11
2023-01-17T03:37:34.541Z,4.11
2023-01-17T03:40:02.206Z,4.10
2023-01-17T03:42:29.886Z,4.10
2023-01-17T03:44:57.633Z,4.11
2023-01-17T03:47:25.316Z,4.12
2023-01-17T03:49:52.952Z,4.13
2023-01-17T03:52:20.693Z,4.13
2023-01-17T03:54:48.515Z,4.13
2023-01-17T03:57:16.161Z,4.12
2023-01-17T03:59:43.824Z,4.13
2023-01-17T04:02:12.366Z,4.12
2023-01-17T04:04:40.296Z,4.11
2023-01-17T04:07:07.940Z,4.09
2023-01-17T04:09:35.665Z,4.07
2023-01-17T04:12:03.667Z,4.07
2023-01-17T04:14:31.368Z,4.05
2023-01-17T04:16:59.917Z,4.05
2023-01-17T04:19:27.675Z,4.05
2023-01-17T04:21:55.389Z,4.05
2023-01-17T04:24:23.136Z,4.02
2023-01-17T04:26:50.858Z,3.96
2023-01-17T04:29:18.575Z,3.87
2023-01-17T04:31:47.666Z,3.84
2023-01-17T04:34:15.323Z,3.82
2023-01-17T04:36:42.981Z,3.81
2023-01-17T04:39:10.675Z,3.81
2023-01-17T04:41:38.578Z,3.80
2023-01-17T04:44:06.326Z,3.80
2023-01-17T04:46:34.235Z,3.78
2023-01-17T04:49:01.974Z,3.77
2023-01-17T04:51:29.779Z,3.76
2023-01-17T04:53:57.492Z,3.77
2023-01-17T04:56:25.161Z,3.75
2023-01-17T04:58:52.855Z,3.68
2023-01-17T05:01:20.684Z,3.62
2023-01-17T05:03:48.434Z,3.59
2023-01-17T05:06:16.116Z,3.55
2023-01-17T05:08:43.891Z,3.50
2023-01-17T05:11:11.529Z,3.45
2023-01-17T05:13:39.246Z,3.42
2023-01-17T05:16:07.175Z,3.38
2023-01-17T05:18:34.888Z,3.37
2023-01-17T05:21:03.380Z,3.35
2023-01-17T05:23:31.196Z,3.31
2023-01-17T05:25:59.404Z,3.28
2023-01-17T05:28:27.161Z,3.24
2023-01-17T05:30:54.870Z,3.20
2023-01-17T05:33:22.553Z,3.17
2023-01-17T05:35:50.579Z,3.12
2023-01-17T05:38:18.356Z,3.08
2023-01-17T05:40:46.089Z,3.04
2023-01-17T05:43:13.802Z,3.01
2023-01-17T05:45:41.559Z,2.99
2023-01-17T05:48:09.534Z,2.97
2023-01-17T05:50:38.181Z,2.94
2023-01-17T05:53:09.092Z,2.93
2023-01-17T05:55:37.932Z,2.93
2023-01-17T05:58:07.075Z,2.91
2023-01-17T06:00:35.056Z,2.97
2023-01-17T06:03:02.726Z,3.33
2023-01-17T06:05:30.799Z,3.93
2023-01-17T06:07:58.580Z,4.16
2023-01-17T06:10:27.006Z,4.49
2023-01-17T06:13:09.733Z,4.67
2023-01-17T06:15:38.838Z,4.75
2023-01-17T06:18:11.223Z,4.91
2023-01-17T06:20:39.645Z,4.81
2023-01-17T06:23:11.228Z,4.76
2023-01-17T06:25:40.988Z,5.08
2023-01-17T06:28:08.613Z,5.39
2023-01-17T06:30:36.495Z,5.57
2023-01-17T06:33:05.006Z,5.61
2023-01-17T06:35:33.337Z,5.56
2023-01-17T06:38:01.056Z,5.45
2023-01-17T06:40:29.252Z,5.32
2023-01-17T06:43:01.813Z,5.23
2023-01-17T06:45:31.842Z,5.14
2023-01-17T06:48:04.148Z,5.28
2023-01-17T06:50:32.685Z,5.12
2023-01-17T06:53:02.816Z,4.73
2023-01-17T06:55:33.726Z,4.29
2023-01-17T06:58:03.094Z,3.98
2023-01-17T07:00:35.168Z,3.80
2023-01-17T07:03:03.352Z,3.66
2023-01-17T07:05:31.127Z,3.57
2023-01-17T07:07:58.851Z,3.44
2023-01-17T07:10:26.491Z,3.31
2023-01-17T07:12:59.702Z,3.19
2023-01-17T07:15:27.859Z,3.06
2023-01-17T07:17:55.590Z,3.16
2023-01-17T07:20:23.232Z,3.12
2023-01-17T07:22:50.891Z,3.17
2023-01-17T07:25:20.121Z,3.44
2023-01-17T07:27:47.916Z,3.78
2023-01-17T07:30:16.061Z,4.02
2023-01-17T07:32:43.735Z,4.47
2023-01-17T07:35:11.396Z,5.16
2023-01-17T07:37:39.216Z,5.68
2023-01-17T07:40:07.284Z,6.75
2023-01-17T07:42:34.911Z,7.25
2023-01-17T07:45:02.659Z,7.41
2023-01-17T07:47:30.357Z,7.26
2023-01-17T07:49:58.177Z,7.12
2023-01-17T07:52:25.882Z,6.97
2023-01-17T07:54:53.752Z,6.89
2023-01-17T07:57:21.577Z,6.86
2023-01-17T07:59:52.620Z,6.80
2023-01-17T08:02:22.324Z,6.66
2023-01-17T08:04:50.155Z,6.46
2023-01-17T08:07:17.905Z,6.46
2023-01-17T08:09:49.563Z,6.80
2023-01-17T08:12:17.609Z,6.96
2023-01-17T08:14:45.301Z,6.90
2023-01-17T08:17:16.644Z,6.98
2023-01-17T08:19:44.931Z,7.11
2023-01-17T08:22:12.689Z,7.09
2023-01-17T08:24:40.499Z,6.91
2023-01-17T08:27:09.109Z,6.82
2023-01-17T08:29:37.172Z,6.63
2023-01-17T08:32:05.009Z,6.58
2023-01-17T08:34:33.409Z,7.32
2023-01-17T08:37:01.093Z,8.51
2023-01-17T08:39:28.828Z,9.35
2023-01-17T08:41:57.404Z,9.76
2023-01-17T08:44:25.166Z,9.76
2023-01-17T08:46:52.961Z,9.83
2023-01-17T08:49:20.657Z,9.43
2023-01-17T08:51:48.411Z,9.03
2023-01-17T08:54:16.702Z,8.76
2023-01-17T08:56:44.511Z,8.86
2023-01-17T08:59:12.572Z,8.87
2023-01-17T09:01:46.101Z,8.84
2023-01-17T09:04:14.429Z,8.78
2023-01-17T09:06:45.420Z,8.73
2023-01-17T09:09:13.725Z,8.68
2023-01-17T09:11:41.627Z,8.68
2023-01-17T09:14:12.542Z,8.78
2023-01-17T09:16:40.638Z,8.41
2023-01-17T09:19:09.085Z,8.02
2023-01-17T09:21:36.777Z,7.80
2023-01-17T09:24:04.513Z,7.61
2023-01-17T09:26:32.311Z,7.51
2023-01-17T09:29:00.160Z,7.48
2023-01-17T09:31:27.873Z,7.41
2023-01-17T09:33:57.210Z,7.26
2023-01-17T09:36:28.893Z,7.11
2023-01-17T09:38:58.168Z,6.89
2023-01-17T09:41:35.227Z,6.77
2023-01-17T09:44:08.209Z,7.01
2023-01-17T09:46:42.837Z,7.22
2023-01-17T09:49:39.358Z,7.23
2023-01-17T09:52:10.259Z,7.28
2023-01-17T10:06:19.210Z,7.18
2023-01-17T10:09:02.932Z,7.14
2023-01-17T10:12:10.899Z,7.19
2023-01-17T10:15:02.311Z,7.31
2023-01-17T10:17:35.765Z,7.46
2023-01-17T10:20:39.146Z,7.55
2023-01-17T10:23:24.580Z,7.44
2023-01-17T10:25:52.748Z,7.48
2023-01-17T10:28:30.987Z,7.55
2023-01-17T10:31:03.459Z,7.46
2023-01-17T10:33:47.092Z,7.42
2023-01-17T10:36:21.192Z,7.42
2023-01-17T10:38:51.701Z,7.47
2023-01-17T10:41:57.318Z,7.46
2023-01-17T10:44:29.582Z,7.33
2023-01-17T10:46:58.807Z,7.15
2023-01-17T10:49:27.643Z,6.99
2023-01-17T10:52:02.969Z,6.82
2023-01-17T10:55:07.983Z,6.67
2023-01-17T10:57:41.069Z,6.56
2023-01-17T11:00:45.694Z,6.63
2023-01-17T11:03:15.343Z,6.81
2023-01-17T11:05:42.468Z,6.78
2023-01-17T11:08:13.995Z,6.72
2023-01-17T11:10:46.480Z,6.90
2023-01-17T11:13:39.641Z,7.09
2023-01-17T11:16:09.660Z,7.23
2023-01-17T11:18:38.880Z,6.93
2023-01-17T11:21:11.356Z,6.65
2023-01-17T11:23:44.434Z,6.50
2023-01-17T11:26:22.282Z,6.74
2023-01-17T11:28:48.575Z,7.05
2023-01-17T11:31:15.845Z,7.29
2023-01-17T11:33:47.647Z,7.50
2023-01-17T11:36:21.640Z,7.56
2023-01-17T11:39:02.073Z,7.38
2023-01-17T11:41:39.909Z,7.39
2023-01-17T11:44:34.646Z,7.59
2023-01-17T11:47:13.233Z,7.53
2023-01-17T11:49:41.515Z,7.35
2023-01-17T11:52:20.467Z,7.17
2023-01-17T11:54:47.838Z,7.04
2023-01-17T11:57:27.488Z,6.92
2023-01-17T12:00:18.614Z,6.82
2023-01-17T12:03:20.000Z,6.62
2023-01-17T12:06:07.260Z,6.36
2023-01-17T12:08:44.336Z,6.64
2023-01-17T12:11:25.202Z,7.11
2023-01-17T12:14:00.635Z,7.51
2023-01-17T12:17:03.893Z,7.73
2023-01-17T12:20:00.154Z,7.71
2023-01-17T12:22:38.504Z,7.75
2023-01-17T12:25:24.087Z,7.74
2023-01-17T12:28:45.542Z,7.57
2023-01-17T12:31:32.719Z,7.43
2023-01-17T12:34:17.830Z,7.28
2023-01-17T12:36:56.895Z,7.09
2023-01-17T12:39:32.435Z,7.06
2023-01-17T12:42:20.561Z,6.78
2023-01-17T12:44:57.106Z,6.48
2023-01-17T12:47:23.803Z,6.35
2023-01-17T12:50:22.002Z,6.26
2023-01-17T12:52:54.313Z,6.64
2023-01-17T12:55:51.187Z,6.95
2023-01-17T12:58:28.644Z,6.88
2023-01-17T13:01:06.698Z,6.97
2023-01-17T13:04:02.564Z,7.53
2023-01-17T13:06:57.619Z,8.06
2023-01-17T13:09:24.147Z,8.39
2023-01-17T13:12:02.611Z,8.54
2023-01-17T13:14:28.968Z,8.73
2023-01-17T13:16:59.709Z,8.90
2023-01-17T13:19:54.060Z,8.98
2023-01-17T13:22:23.399Z,8.98
2023-01-17T13:25:14.325Z,8.96
2023-01-17T13:28:06.329Z,8.77
2023-01-17T13:30:49.008Z,8.54
2023-01-17T13:33:34.158Z,8.39
2023-01-17T13:36:09.359Z,8.03
2023-01-17T13:38:56.817Z,7.71
2023-01-17T13:41:54.130Z,7.40
2023-01-17T13:44:26.930Z,7.15
2023-01-17T13:47:03.527Z,7.00
2023-01-17T13:49:33.433Z,7.07
2023-01-17T13:52:20.119Z,6.92
2023-01-17T13:54:49.136Z,6.65
2023-01-17T13:57:39.338Z,6.45
2023-01-17T14:00:15.733Z,6.30
2023-01-17T14:02:42.931Z,6.23
2023-01-17T14:05:17.763Z,6.18
2023-01-17T14:07:47.197Z,6.12
2023-01-17T14:10:33.724Z,6.05
2023-01-17T14:13:00.668Z,6.00
2023-01-17T14:15:30.571Z,5.94
2023-01-17T14:18:04.098Z,5.86
2023-01-17T14:20:39.587Z,5.86
2023-01-17T14:23:27.475Z,5.91
2023-01-17T14:25:58.592Z,5.88
2023-01-17T14:28:28.715Z,5.81
2023-01-17T14:30:57.423Z,5.78
2023-01-17T14:33:34.096Z,5.74
2023-01-17T14:36:04.147Z,5.67
2023-01-17T14:38:32.928Z,5.57
2023-01-17T14:41:21.045Z,5.51
2023-01-17T14:43:49.789Z,5.52
2023-01-17T14:46:23.268Z,5.74
2023-01-17T14:48:51.726Z,5.69
2023-01-17T14:51:24.119Z,5.55
2023-01-17T14:54:02.436Z,5.40
2023-01-17T14:56:30.708Z,5.28
2023-01-17T14:59:20.418Z,5.20
2023-01-17T15:02:07.205Z,5.14
2023-01-17T15:04:38.346Z,5.06
2023-01-17T15:07:04.685Z,5.00
2023-01-17T15:09:36.596Z,4.96
2023-01-17T15:12:03.576Z,5.24
2023-01-17T15:14:37.357Z,5.58
2023-01-17T15:17:25.687Z,5.64
2023-01-17T15:20:02.693Z,5.35
2023-01-17T15:22:29.546Z,5.29
2023-01-17T15:24:57.827Z,5.06
2023-01-17T15:27:24.907Z,4.80
2023-01-17T15:29:51.686Z,4.60
2023-01-17T15:32:24.065Z,4.46
2023-01-17T15:34:51.879Z,4.37
2023-01-17T15:37:39.898Z,4.29
2023-01-17T15:40:19.067Z,4.24
2023-01-17T15:42:55.951Z,4.18
2023-01-17T15:45:27.555Z,4.11
2023-01-17T15:47:54.069Z,4.03
2023-01-17T15:50:25.105Z,3.97
2023-01-17T15:52:52.927Z,3.90
2023-01-17T15:55:39.989Z,3.85
2023-01-17T15:58:26.989Z,3.79
2023-01-17T16:00:54.224Z,3.75
2023-01-17T16:03:31.064Z,3.71
2023-01-17T16:05:59.792Z,3.67
2023-01-17T16:08:38.478Z,3.63
2023-01-17T16:11:06.635Z,3.60
2023-01-17T16:13:37.867Z,3.58
2023-01-17T16:16:20.564Z,3.55
2023-01-17T16:18:48.267Z,3.56
2023-01-17T16:21:19.123Z,3.62
2023-01-17T16:23:45.849Z,3.69
2023-01-17T16:26:12.241Z,3.64
2023-01-17T16:28:38.577Z,3.60
2023-01-17T16:31:05.334Z,3.58
2023-01-17T16:33:31.956Z,3.63
2023-01-17T16:35:58.245Z,3.62
2023-01-17T16:38:24.666Z,3.53
2023-01-17T16:40:51.247Z,3.44
2023-01-17T16:43:18.742Z,3.45
2023-01-17T16:45:49.812Z,3.53
2023-01-17T16:48:18.967Z,3.48
2023-01-17T16:50:49.763Z,3.41
2023-01-17T16:53:20.906Z,3.33
2023-01-17T16:55:50.283Z,3.27
2023-01-17T16:58:17.279Z,3.14
2023-01-17T17:00:43.564Z,3.02
2023-01-17T17:03:16.068Z,3.03
2023-01-17T17:05:44.369Z,3.30
2023-01-17T17:08:10.949Z,3.17
2023-01-17T17:10:37.276Z,2.97
2023-01-17T17:13:03.763Z,2.89
2023-01-17T17:15:30.166Z,3.28
2023-01-17T17:17:56.553Z,3.33
2023-01-17T17:20:25.082Z,3.40
2023-01-17T17:22:51.730Z,3.66
2023-01-17T17:25:18.640Z,3.66
2023-01-17T17:27:45.139Z,3.93
2023-01-17T17:30:12.057Z,4.09
2023-01-17T17:32:38.546Z,4.42
2023-01-17T17:35:05.704Z,4.88
2023-01-17T17:37:31.975Z,5.08
2023-01-17T17:39:58.332Z,5.11
2023-01-17T17:42:24.960Z,5.13
2023-01-17T17:44:51.553Z,4.91
2023-01-17T17:47:17.825Z,4.42
2023-01-17T17:49:44.162Z,4.37
2023-01-17T17:52:10.555Z,4.40
2023-01-17T17:54:36.861Z,4.45
2023-01-17T17:57:03.510Z,4.56
2023-01-17T17:59:30.590Z,4.68
2023-01-17T18:01:59.052Z,4.48
2023-01-17T18:04:26.340Z,4.22
2023-01-17T18:06:56.882Z,4.12
2023-01-17T18:09:23.463Z,4.08
2023-01-17T18:11:49.757Z,3.92
2023-01-17T18:14:17.005Z,3.69
2023-01-17T18:16:44.085Z,3.47
2023-01-17T18:19:16.712Z,3.32
2023-01-17T18:21:43.492Z,3.25
2023-01-17T18:24:12.218Z,3.18
2023-01-17T18:26:47.590Z,3.15
2023-01-17T18:29:15.858Z,3.09
2023-01-17T18:31:43.551Z,3.03
2023-01-17T18:34:13.352Z,2.98
2023-01-17T18:36:40.274Z,2.98
2023-01-17T18:39:12.938Z,2.91
2023-01-17T18:41:39.251Z,2.84
2023-01-17T18:44:06.568Z,2.77
2023-01-17T18:46:34.208Z,2.73
2023-01-17T18:49:00.637Z,2.68
2023-01-17T18:51:29.263Z,2.63
2023-01-17T18:53:55.704Z,2.57
2023-01-17T18:56:22.493Z,2.51
2023-01-17T18:58:50.239Z,2.44
2023-01-17T19:01:21.983Z,2.34
2023-01-17T19:03:50.728Z,2.24
2023-01-17T19:06:20.254Z,2.16
2023-01-17T19:08:48.543Z,2.12
2023-01-17T19:11:14.897Z,2.04
2023-01-17T19:13:41.342Z,1.95
2023-01-17T19:16:12.865Z,1.87
2023-01-17T19:18:39.271Z,1.82
2023-01-17T19:21:11.692Z,1.78
2023-01-17T19:23:38.797Z,2.18
2023-01-17T19:26:07.894Z,2.75
2023-01-17T19:28:41.790Z,3.00
2023-01-17T19:31:14.668Z,3.02
2023-01-17T19:33:43.237Z,2.69
2023-01-17T19:36:15.395Z,2.39
2023-01-17T19:38:49.440Z,2.16
2023-01-17T19:41:26.052Z,2.03
2023-01-17T19:44:05.755Z,1.95
2023-01-17T19:46:33.042Z,1.90
2023-01-17T19:48:59.811Z,1.83
2023-01-17T19:51:27.381Z,1.79
2023-01-17T19:53:55.841Z,1.81
2023-01-17T19:56:24.658Z,1.75
2023-01-17T19:58:51.664Z,1.85
2023-01-17T20:01:25.921Z,1.81
2023-01-17T20:03:52.712Z,1.75
2023-01-17T20:06:22.114Z,1.76
2023-01-17T20:08:48.909Z,3.32
2023-01-17T20:11:19.022Z,5.74
2023-01-17T20:13:47.148Z,7.60
2023-01-17T20:16:15.961Z,8.61
2023-01-17T20:18:43.466Z,9.00
2023-01-17T20:21:16.423Z,9.22
2023-01-17T20:23:43.879Z,9.31
2023-01-17T20:26:11.183Z,9.44
2023-01-17T20:28:39.824Z,9.64
2023-01-17T20:31:11.987Z,9.81
2023-01-17T20:33:39.515Z,8.83
2023-01-17T20:36:10.915Z,7.29
2023-01-17T20:38:44.582Z,6.05
2023-01-17T20:41:13.800Z,5.18
2023-01-17T20:43:41.900Z,4.57
2023-01-17T20:46:08.992Z,4.62
2023-01-17T20:48:37.106Z,5.50
2023-01-17T20:51:11.073Z,5.80
2023-01-17T20:53:39.328Z,5.88
2023-01-17T20:56:08.152Z,5.47
2023-01-17T20:58:34.771Z,4.97
2023-01-17T21:01:01.404Z,4.55
2023-01-17T21:03:28.532Z,4.30
2023-01-17T21:06:03.840Z,4.03
2023-01-17T21:08:32.509Z,3.74
2023-01-17T21:10:59.078Z,3.51
2023-01-17T21:13:25.853Z,3.34
2023-01-17T21:15:53.043Z,3.16
2023-01-17T21:18:21.153Z,2.98
2023-01-17T21:20:48.137Z,2.85
2023-01-17T21:23:18.066Z,2.73
2023-01-17T21:25:55.682Z,2.57
2023-01-17T21:28:24.169Z,2.36
2023-01-17T21:30:51.394Z,2.23
2023-01-17T21:33:19.228Z,2.07
2023-01-17T21:35:46.031Z,1.89
2023-01-17T21:38:13.627Z,1.75
2023-01-17T21:40:40.609Z,1.61
2023-01-17T21:43:07.273Z,1.49
2023-01-17T21:45:37.870Z,1.41
2023-01-17T21:48:06.047Z,1.36
2023-01-17T21:50:33.837Z,1.31
2023-01-17T21:53:00.245Z,1.22
2023-01-17T21:55:45.769Z,1.12
2023-01-17T21:58:46.621Z,1.06
2023-01-17T22:01:21.659Z,1.01
2023-01-17T22:03:55.081Z,1.02
2023-01-17T22:06:23.802Z,1.20
2023-01-17T22:08:50.181Z,1.26
2023-01-17T22:11:19.591Z,1.20
2023-01-17T22:13:46.690Z,1.13
2023-01-17T22:16:15.110Z,1.11
2023-01-17T22:18:42.759Z,1.33
2023-01-17T22:21:19.268Z,1.59
2023-01-17T22:23:57.251Z,1.97
2023-01-17T22:26:28.916Z,2.64
2023-01-17T22:28:58.498Z,3.17
2023-01-17T22:31:27.200Z,3.47
2023-01-17T22:33:56.430Z,3.92
2023-01-17T22:36:25.707Z,4.14
2023-01-17T22:38:52.037Z,4.08
2023-01-17T22:41:21.571Z,3.88
2023-01-17T22:43:52.552Z,3.70
2023-01-17T22:46:21.916Z,4.18
2023-01-17T22:48:48.649Z,6.42
2023-01-17T22:51:17.233Z,7.62
2023-01-17T22:53:54.770Z,7.95
2023-01-17T22:56:32.275Z,8.02
2023-01-17T22:59:03.228Z,7.86
2023-01-17T23:01:32.070Z,8.14
2023-01-17T23:04:01.355Z,8.91
2023-01-17T23:06:30.269Z,8.92
2023-01-17T23:08:58.958Z,8.42
2023-01-17T23:11:40.105Z,7.75
2023-01-17T23:14:21.866Z,6.56
2023-01-17T23:17:06.600Z,5.60
2023-01-17T23:19:35.425Z,4.84
2023-01-17T23:22:16.065Z,5.57
2023-01-17T23:24:46.734Z,7.23
2023-01-17T23:27:51.395Z,8.70
2023-01-17T23:30:18.615Z,9.65
2023-01-17T23:32:48.133Z,9.59
2023-01-17T23:35:15.996Z,9.18
2023-01-17T23:38:00.866Z,8.07
2023-01-17T23:40:27.636Z,6.44
2023-01-17T23:43:12.999Z,5.31
2023-01-17T23:45:39.731Z,4.36
2023-01-17T23:48:10.874Z,4.07
2023-01-17T23:50:39.512Z,5.60
2023-01-17T23:53:06.536Z,7.03
2023-01-17T23:55:38.898Z,7.54
2023-01-17T23:58:07.735Z,7.65
